Time;durP1;ratioP1;P1;durP2;ratioP2;P2;SDS_P1;SDS_P2;PMS_P1;PMS_P2;Temp;Humidity;BMP_temperature;BMP_pressure;BME280_temperature;BME280_humidity;BME280_pressure;Samples;Min_cycle;Max_cycle;Signal;HPM_P1;HPM_P2
2023/02/01 00:01:09;;;;;;;;;;;4.40;90.50;;;;;;4987685;28;19910;-82
2023/02/01 00:03:35;;;;;;;;;;;4.30;90.60;;;;;;4989043;28;19910;-82
2023/02/01 00:06:01;;;;;;;;;;;4.30;90.60;;;;;;4989321;28;19922;-83
2023/02/01 00:08:26;;;;;;;;;;;4.40;90.60;;;;;;4989912;28;20282;-83
2023/02/01 00:10:59;;;;;;;;;;;4.40;90.30;;;;;;4990139;28;19916;-82
2023/02/01 00:13:29;;;;;;;;;;;4.40;90.40;;;;;;4990006;28;19961;-83
2023/02/01 00:15:55;;;;;;;;;;;4.40;90.40;;;;;;4991290;28;19941;-83
2023/02/01 00:18:20;;;;;;;;;;;4.40;90.50;;;;;;4995290;28;19917;-83
2023/02/01 00:20:46;;;;;;;;;;;4.40;90.20;;;;;;4979045;28;19910;-83
2023/02/01 00:23:12;;;;;;;;;;;4.50;90.20;;;;;;4979170;28;20378;-83
2023/02/01 00:25:37;;;;;;;;;;;4.40;90.10;;;;;;4999448;28;19921;-83
2023/02/01 00:28:03;;;;;;;;;;;4.40;90.00;;;;;;4996598;28;19910;-82
2023/02/01 00:30:28;;;;;;;;;;;4.50;90.10;;;;;;5001094;28;19914;-82
2023/02/01 00:32:54;;;;;;;;;;;4.50;90.00;;;;;;5000217;28;19977;-83
2023/02/01 00:35:19;;;;;;;;;;;4.50;90.00;;;;;;4997429;28;19902;-83
2023/02/01 00:37:45;;;;;;;;;;;4.60;90.00;;;;;;4989273;28;19910;-83
2023/02/01 00:40:10;;;;;;;;;;;4.60;90.00;;;;;;4989118;28;19917;-83
2023/02/01 00:42:36;;;;;;;;;;;4.60;90.10;;;;;;4986969;28;19921;-83
2023/02/01 00:45:02;;;;;;;;;;;4.70;90.30;;;;;;4984627;28;20386;-83
2023/02/01 00:47:27;;;;;;;;;;;4.60;90.70;;;;;;4968692;28;19921;-84
2023/02/01 00:49:53;;;;;;;;;;;4.60;91.00;;;;;;4968762;28;19918;-82
2023/02/01 00:52:18;;;;;;;;;;;4.40;91.70;;;;;;4989536;28;19915;-82
2023/02/01 00:54:44;;;;;;;;;;;4.40;91.90;;;;;;4991779;28;19910;-83
2023/02/01 00:57:09;;;;;;;;;;;4.30;92.40;;;;;;4989703;28;19910;-82
2023/02/01 00:59:35;;;;;;;;;;;4.20;92.70;;;;;;4985091;28;19941;-82
2023/02/01 01:02:00;;;;;;;;;;;4.20;93.20;;;;;;4984472;28;19949;-82
2023/02/01 01:04:26;;;;;;;;;;;4.10;93.60;;;;;;4966700;28;20057;-82
2023/02/01 01:06:51;;;;;;;;;;;4.10;94.00;;;;;;4979026;28;19944;-82
2023/02/01 01:09:17;;;;;;;;;;;3.90;94.40;;;;;;4986166;28;19918;-83
2023/02/01 01:11:42;;;;;;;;;;;3.80;94.80;;;;;;4988521;28;19917;-83
2023/02/01 01:14:08;;;;;;;;;;;3.70;95.20;;;;;;4984688;28;19922;-84
2023/02/01 01:16:34;;;;;;;;;;;3.70;95.60;;;;;;4986345;28;19910;-84
2023/02/01 01:19:00;;;;;;;;;;;3.70;95.80;;;;;;4987926;28;19918;-82
2023/02/01 01:21:25;;;;;;;;;;;3.60;96.20;;;;;;4987505;28;19910;-82
2023/02/01 01:23:51;;;;;;;;;;;3.60;96.40;;;;;;4982022;28;19917;-82
2023/02/01 01:26:18;;;;;;;;;;;3.70;96.80;;;;;;4983396;28;20377;-82
2023/02/01 01:28:44;;;;;;;;;;;3.70;96.50;;;;;;4983628;28;19911;-82
2023/02/01 01:31:10;;;;;;;;;;;3.70;96.60;;;;;;4982267;28;20420;-82
2023/02/01 01:33:36;;;;;;;;;;;3.70;96.30;;;;;;4983712;28;20000;-82
2023/02/01 01:36:03;;;;;;;;;;;3.70;96.50;;;;;;4983620;28;19910;-81
2023/02/01 01:38:29;;;;;;;;;;;3.80;96.70;;;;;;4983859;28;19945;-82
2023/02/01 01:40:55;;;;;;;;;;;3.80;96.80;;;;;;4966020;28;19910;-82
2023/02/01 01:43:23;;;;;;;;;;;3.80;96.90;;;;;;4983594;28;20378;-82
2023/02/01 01:45:50;;;;;;;;;;;3.80;97.20;;;;;;4981417;28;19950;-82
2023/02/01 01:48:20;;;;;;;;;;;3.80;97.10;;;;;;4983590;28;19945;-82
2023/02/01 01:50:48;;;;;;;;;;;3.90;97.30;;;;;;4982746;28;19918;-82
2023/02/01 01:53:16;;;;;;;;;;;3.80;97.50;;;;;;4980328;28;19914;-82
2023/02/01 01:55:43;;;;;;;;;;;3.80;97.60;;;;;;4982122;28;19910;-82
2023/02/01 01:58:11;;;;;;;;;;;3.80;97.90;;;;;;4983458;28;19913;-82
2023/02/01 02:00:37;;;;;;;;;;;3.80;98.10;;;;;;4982718;28;19910;-82
2023/02/01 02:03:07;;;;;;;;;;;3.80;98.40;;;;;;4982163;28;19917;-83
2023/02/01 02:05:32;;;;;;;;;;;3.80;98.60;;;;;;4982370;28;20314;-83
2023/02/01 02:08:00;;;;;;;;;;;3.70;98.60;;;;;;4982001;28;19937;-83
2023/02/01 02:10:59;;;;;;;;;;;3.70;98.90;;;;;;4980727;28;19954;-83
2023/02/01 02:13:13;;;;;;;;;;;3.70;99.20;;;;;;4980503;28;20278;-82
2023/02/01 02:15:42;;;;;;;;;;;3.60;99.40;;;;;;4984789;28;19910;-82
2023/02/01 02:18:14;;;;;;;;;;;3.60;99.40;;;;;;4991099;28;19910;-83
2023/02/01 02:21:01;;;;;;;;;;;3.50;99.60;;;;;;4990664;28;20017;-83
2023/02/01 02:23:51;;;;;;;;;;;3.50;99.90;;;;;;4982065;28;19911;-83
2023/02/01 02:26:32;;;;;;;;;;;3.40;99.90;;;;;;4980409;28;19917;-83
2023/02/01 02:29:02;;;;;;;;;;;3.40;99.90;;;;;;4981153;28;19910;-84
2023/02/01 02:31:52;;;;;;;;;;;3.40;99.90;;;;;;4978617;28;19910;-82
2023/02/01 02:34:38;;;;;;;;;;;3.50;99.90;;;;;;4998844;28;19906;-82
2023/02/01 02:37:07;;;;;;;;;;;3.50;99.90;;;;;;5003491;28;19910;-82
2023/02/01 02:39:54;;;;;;;;;;;3.50;99.90;;;;;;4970981;29;19911;-83
2023/02/01 02:48:16;;;;;;;;;;;3.60;99.90;;;;;;4972632;29;19921;-85
2023/02/01 03:04:57;;;;;;;;;;;3.60;99.90;;;;;;4965153;29;19925;-84
2023/02/01 03:07:41;;;;;;;;;;;3.60;99.90;;;;;;4964403;29;20287;-82
2023/02/01 03:10:10;;;;;;;;;;;3.70;99.90;;;;;;4974168;28;19906;-81
2023/02/01 03:12:56;;;;;;;;;;;3.70;99.90;;;;;;4967357;28;19958;-82
2023/02/01 03:15:28;;;;;;;;;;;3.70;99.90;;;;;;4962408;29;20370;-82
2023/02/01 03:17:55;;;;;;;;;;;3.70;99.90;;;;;;4975052;29;19922;-82
2023/02/01 03:20:21;;;;;;;;;;;3.70;99.90;;;;;;4975681;29;19916;-82
2023/02/01 03:22:48;;;;;;;;;;;3.70;99.90;;;;;;4958688;29;19970;-82
2023/02/01 03:25:17;;;;;;;;;;;3.80;99.90;;;;;;4967437;29;19918;-83
2023/02/01 03:27:52;;;;;;;;;;;3.80;99.90;;;;;;4965469;29;19921;-83
2023/02/01 03:30:25;;;;;;;;;;;3.80;99.90;;;;;;4963327;28;19911;-83
2023/02/01 03:33:00;;;;;;;;;;;3.80;99.80;;;;;;4946156;29;19910;-82
2023/02/01 03:35:29;;;;;;;;;;;3.80;99.60;;;;;;4963717;29;19911;-83
2023/02/01 03:37:56;;;;;;;;;;;3.80;99.50;;;;;;4963139;29;19926;-83
2023/02/01 03:40:22;;;;;;;;;;;3.90;99.10;;;;;;4945710;29;19915;-83
2023/02/01 03:42:51;;;;;;;;;;;3.90;98.70;;;;;;4963917;29;19960;-83
2023/02/01 03:45:20;;;;;;;;;;;3.90;98.90;;;;;;4966558;29;20256;-83
2023/02/01 03:47:48;;;;;;;;;;;3.90;98.90;;;;;;4948694;29;20017;-84
2023/02/01 03:50:15;;;;;;;;;;;3.90;98.80;;;;;;4974985;28;19989;-84
2023/02/01 03:52:46;;;;;;;;;;;3.90;98.80;;;;;;4983907;28;20375;-85
2023/02/01 03:55:14;;;;;;;;;;;3.90;98.80;;;;;;4973663;29;19910;-84
2023/02/01 03:57:43;;;;;;;;;;;3.90;98.50;;;;;;4975424;28;19942;-84
2023/02/01 04:00:19;;;;;;;;;;;4.00;98.20;;;;;;4980832;28;19914;-84
2023/02/01 04:02:45;;;;;;;;;;;4.00;98.30;;;;;;4994829;28;20005;-84
2023/02/01 04:05:11;;;;;;;;;;;4.00;98.10;;;;;;4988536;28;19922;-84
2023/02/01 04:07:37;;;;;;;;;;;4.00;98.20;;;;;;4985317;28;19918;-85
2023/02/01 04:10:03;;;;;;;;;;;4.00;98.10;;;;;;4985282;28;19932;-84
2023/02/01 04:12:28;;;;;;;;;;;4.00;98.00;;;;;;5004736;28;19914;-85
2023/02/01 04:14:54;;;;;;;;;;;4.00;98.00;;;;;;5013507;28;20295;-84
2023/02/01 04:17:20;;;;;;;;;;;4.00;98.10;;;;;;4999492;28;19913;-84
2023/02/01 04:19:45;;;;;;;;;;;4.00;98.10;;;;;;4999284;28;19921;-84
2023/02/01 04:22:12;;;;;;;;;;;4.00;98.10;;;;;;4989662;28;19911;-84
2023/02/01 04:24:37;;;;;;;;;;;4.00;98.20;;;;;;4994375;28;20063;-84
2023/02/01 04:27:03;;;;;;;;;;;4.00;98.10;;;;;;4978300;28;19922;-84
2023/02/01 04:29:29;;;;;;;;;;;3.90;97.90;;;;;;4979488;28;20023;-84
2023/02/01 04:31:54;;;;;;;;;;;4.00;97.70;;;;;;4979682;28;19921;-84
2023/02/01 04:34:22;;;;;;;;;;;4.00;97.70;;;;;;4981030;28;20002;-85
2023/02/01 04:36:47;;;;;;;;;;;4.00;97.60;;;;;;4974322;28;19910;-84
2023/02/01 04:39:13;;;;;;;;;;;4.00;97.60;;;;;;4955614;28;19997;-83
2023/02/01 04:41:39;;;;;;;;;;;4.00;97.40;;;;;;4980535;28;19921;-83
2023/02/01 04:44:04;;;;;;;;;;;4.00;97.60;;;;;;4983799;28;19917;-83
2023/02/01 04:46:30;;;;;;;;;;;3.90;97.40;;;;;;4980588;28;19914;-83
2023/02/01 04:48:55;;;;;;;;;;;3.90;97.50;;;;;;4987633;28;19969;-82
2023/02/01 04:51:21;;;;;;;;;;;3.90;97.50;;;;;;4984135;28;20052;-83
2023/02/01 04:53:47;;;;;;;;;;;3.90;97.50;;;;;;4984438;28;19926;-82
2023/02/01 04:56:12;;;;;;;;;;;3.90;97.60;;;;;;4983813;28;19916;-83
2023/02/01 04:58:38;;;;;;;;;;;3.90;97.30;;;;;;4983683;28;19921;-83
2023/02/01 05:01:04;;;;;;;;;;;3.90;97.30;;;;;;4983685;28;19910;-83
2023/02/01 05:03:30;;;;;;;;;;;4.00;97.30;;;;;;4983396;28;19914;-82
2023/02/01 05:05:56;;;;;;;;;;;4.00;97.20;;;;;;4985046;28;20011;-83
2023/02/01 05:08:22;;;;;;;;;;;4.00;97.00;;;;;;4949806;29;19911;-83
2023/02/01 05:10:48;;;;;;;;;;;4.00;97.10;;;;;;4944892;29;19917;-83
2023/02/01 05:15:58;;;;;;;;;;;4.00;96.80;;;;;;5000417;28;19917;-84
2023/02/01 05:18:23;;;;;;;;;;;4.10;96.40;;;;;;5000888;28;19909;-84
2023/02/01 05:20:49;;;;;;;;;;;4.10;96.50;;;;;;5001294;28;19910;-83
2023/02/01 05:23:14;;;;;;;;;;;4.00;96.50;;;;;;5000719;28;20287;-82
2023/02/01 05:25:40;;;;;;;;;;;4.00;96.60;;;;;;4984000;28;19917;-82
2023/02/01 05:28:05;;;;;;;;;;;4.10;96.40;;;;;;5002013;28;19910;-84
2023/02/01 05:30:38;;;;;;;;;;;4.00;96.60;;;;;;5000941;28;19917;-83
2023/02/01 05:33:10;;;;;;;;;;;4.00;96.50;;;;;;4964521;28;19973;-83
2023/02/01 05:35:36;;;;;;;;;;;4.00;96.50;;;;;;4983084;28;19914;-84
2023/02/01 05:38:01;;;;;;;;;;;4.00;96.50;;;;;;4978408;28;19992;-84
2023/02/01 05:40:27;;;;;;;;;;;4.00;96.50;;;;;;4983521;28;20390;-85
2023/02/01 05:42:52;;;;;;;;;;;4.00;96.40;;;;;;4967349;28;19921;-84
2023/02/01 05:45:18;;;;;;;;;;;4.00;96.40;;;;;;4965424;28;19968;-84
2023/02/01 05:47:43;;;;;;;;;;;4.10;96.10;;;;;;4983412;28;19922;-84
2023/02/01 05:50:09;;;;;;;;;;;4.10;96.10;;;;;;4983898;28;19910;-84
2023/02/01 05:52:34;;;;;;;;;;;4.10;96.10;;;;;;4964222;28;19914;-84
2023/02/01 05:55:00;;;;;;;;;;;4.10;96.20;;;;;;4983032;28;19910;-83
2023/02/01 05:57:26;;;;;;;;;;;4.00;96.30;;;;;;4968948;28;20347;-84
2023/02/01 05:59:51;;;;;;;;;;;4.00;96.20;;;;;;4984182;28;19974;-83
2023/02/01 06:02:17;;;;;;;;;;;4.10;96.10;;;;;;4970215;28;19917;-84
2023/02/01 06:04:43;;;;;;;;;;;4.10;96.20;;;;;;4969450;28;19902;-84
2023/02/01 06:07:10;;;;;;;;;;;4.10;96.20;;;;;;4983740;28;19918;-85
2023/02/01 06:09:36;;;;;;;;;;;4.00;96.20;;;;;;4981771;28;19910;-84
2023/02/01 06:12:02;;;;;;;;;;;4.10;96.20;;;;;;4990753;28;19941;-84
2023/02/01 06:14:27;;;;;;;;;;;4.10;96.20;;;;;;4982280;28;19910;-84
2023/02/01 06:16:57;;;;;;;;;;;4.10;96.10;;;;;;4998149;28;19910;-84
2023/02/01 06:19:23;;;;;;;;;;;4.10;96.10;;;;;;4982179;28;20398;-84
2023/02/01 06:21:58;;;;;;;;;;;4.10;96.20;;;;;;4982656;28;19914;-84
2023/02/01 06:24:23;;;;;;;;;;;4.10;96.20;;;;;;4984057;28;20315;-85
2023/02/01 06:26:49;;;;;;;;;;;4.00;96.30;;;;;;4983595;28;19942;-82
2023/02/01 06:29:14;;;;;;;;;;;4.10;96.30;;;;;;4981879;28;19965;-83
2023/02/01 06:31:40;;;;;;;;;;;4.10;96.00;;;;;;4984106;28;20214;-84
2023/02/01 06:34:05;;;;;;;;;;;4.10;95.90;;;;;;4990211;28;19910;-83
2023/02/01 06:36:31;;;;;;;;;;;4.10;96.00;;;;;;4998610;28;19922;-83
2023/02/01 06:38:59;;;;;;;;;;;4.20;95.90;;;;;;4974965;28;19910;-84
2023/02/01 06:41:25;;;;;;;;;;;4.20;95.90;;;;;;4980949;28;19914;-84
2023/02/01 06:43:50;;;;;;;;;;;4.20;95.80;;;;;;4999476;28;19981;-84
2023/02/01 06:46:16;;;;;;;;;;;4.20;95.90;;;;;;4983090;28;19914;-83
2023/02/01 06:48:41;;;;;;;;;;;4.20;95.90;;;;;;4984594;28;19917;-83
2023/02/01 06:51:17;;;;;;;;;;;4.20;95.80;;;;;;4983637;28;19957;-83
2023/02/01 06:53:43;;;;;;;;;;;4.20;95.80;;;;;;4983207;28;20009;-84
2023/02/01 06:56:08;;;;;;;;;;;4.20;95.90;;;;;;4982626;28;19955;-83
2023/02/01 06:58:34;;;;;;;;;;;4.10;95.80;;;;;;4980457;28;19910;-83
2023/02/01 07:01:06;;;;;;;;;;;4.20;95.60;;;;;;4982003;28;19910;-80
2023/02/01 07:03:32;;;;;;;;;;;4.20;95.60;;;;;;4982767;28;19914;-81
2023/02/01 07:06:01;;;;;;;;;;;4.20;95.70;;;;;;4982035;28;19918;-80
2023/02/01 07:08:27;;;;;;;;;;;4.20;95.60;;;;;;4979446;28;19934;-81
2023/02/01 07:10:53;;;;;;;;;;;4.20;95.70;;;;;;4970839;29;19915;-81
2023/02/01 07:13:18;;;;;;;;;;;4.30;95.40;;;;;;4970906;29;19937;-82
2023/02/01 07:15:46;;;;;;;;;;;4.30;95.60;;;;;;4969816;29;19910;-81
2023/02/01 07:18:14;;;;;;;;;;;4.30;95.50;;;;;;4969392;29;19922;-79
2023/02/01 07:20:39;;;;;;;;;;;4.30;95.40;;;;;;4960905;28;19977;-80
2023/02/01 07:23:05;;;;;;;;;;;4.30;95.30;;;;;;4989095;28;19942;-81
2023/02/01 07:25:30;;;;;;;;;;;4.30;95.30;;;;;;4986160;28;19971;-80
2023/02/01 07:27:56;;;;;;;;;;;4.40;95.20;;;;;;4987604;28;19969;-81
2023/02/01 07:30:22;;;;;;;;;;;4.40;95.20;;;;;;4994077;28;19910;-81
2023/02/01 07:32:47;;;;;;;;;;;4.40;95.00;;;;;;4984349;28;19921;-82
2023/02/01 07:35:19;;;;;;;;;;;4.40;94.90;;;;;;4986491;28;19911;-83
2023/02/01 07:40:32;;;;;;;;;;;4.50;94.50;;;;;;4988420;28;19926;-84
2023/02/01 07:43:01;;;;;;;;;;;4.40;94.70;;;;;;4967056;28;20380;-83
2023/02/01 07:45:27;;;;;;;;;;;4.50;94.60;;;;;;4986315;28;19918;-84
2023/02/01 07:47:55;;;;;;;;;;;4.40;94.70;;;;;;4991822;28;19922;-83
2023/02/01 07:50:21;;;;;;;;;;;4.50;94.50;;;;;;4982627;28;19943;-84
2023/02/01 07:52:46;;;;;;;;;;;4.50;94.50;;;;;;4964868;28;19914;-83
2023/02/01 07:55:12;;;;;;;;;;;4.50;94.40;;;;;;4979003;28;20367;-83
2023/02/01 07:57:38;;;;;;;;;;;4.60;94.40;;;;;;4980561;28;19914;-82
2023/02/01 08:02:48;;;;;;;;;;;4.60;94.10;;;;;;4984898;28;19921;-81
2023/02/01 08:05:13;;;;;;;;;;;4.60;94.00;;;;;;4980815;28;19918;-82
2023/02/01 08:07:39;;;;;;;;;;;4.60;93.70;;;;;;4980424;28;19914;-81
2023/02/01 08:10:10;;;;;;;;;;;4.70;93.40;;;;;;4981803;28;19910;-81
2023/02/01 08:12:36;;;;;;;;;;;4.80;93.30;;;;;;4981859;28;19917;-82
2023/02/01 08:15:05;;;;;;;;;;;4.80;93.10;;;;;;4966423;28;19973;-84
2023/02/01 08:17:31;;;;;;;;;;;4.90;92.90;;;;;;4997330;28;19910;-84
2023/02/01 08:19:56;;;;;;;;;;;4.90;92.90;;;;;;4997457;28;19974;-84
2023/02/01 08:22:22;;;;;;;;;;;4.90;92.50;;;;;;4996002;28;19973;-84
2023/02/01 08:24:48;;;;;;;;;;;5.00;92.40;;;;;;4979856;28;19911;-83
2023/02/01 08:27:13;;;;;;;;;;;5.00;92.60;;;;;;4973051;28;19948;-85
2023/02/01 08:29:40;;;;;;;;;;;4.90;92.50;;;;;;5001763;28;20005;-84
2023/02/01 08:32:07;;;;;;;;;;;5.00;92.10;;;;;;4990787;28;19978;-84
2023/02/01 08:34:32;;;;;;;;;;;5.00;92.10;;;;;;4989484;28;20009;-84
2023/02/01 08:36:58;;;;;;;;;;;5.00;92.00;;;;;;4988595;28;19918;-85
2023/02/01 08:39:24;;;;;;;;;;;5.10;91.80;;;;;;4988980;28;19937;-84
2023/02/01 08:44:39;;;;;;;;;;;5.20;91.20;;;;;;4988523;28;20286;-83
2023/02/01 08:47:08;;;;;;;;;;;5.30;90.90;;;;;;4986432;28;20012;-83
2023/02/01 08:49:33;;;;;;;;;;;5.40;90.60;;;;;;4985573;28;19910;-84
2023/02/01 08:52:04;;;;;;;;;;;5.50;90.60;;;;;;4984232;28;20279;-84
2023/02/01 08:54:32;;;;;;;;;;;5.60;90.50;;;;;;4977513;28;19915;-84
2023/02/01 08:56:57;;;;;;;;;;;5.60;90.10;;;;;;4989134;28;20004;-85
2023/02/01 08:59:23;;;;;;;;;;;5.70;89.80;;;;;;5005731;28;19937;-85
2023/02/01 09:01:48;;;;;;;;;;;5.80;88.90;;;;;;4988987;28;19910;-87
2023/02/01 09:04:14;;;;;;;;;;;5.80;88.70;;;;;;4988843;28;19917;-85
2023/02/01 09:06:41;;;;;;;;;;;5.80;88.20;;;;;;4991444;28;19917;-84
2023/02/01 09:09:06;;;;;;;;;;;5.90;88.00;;;;;;4971457;28;19913;-85
2023/02/01 09:11:32;;;;;;;;;;;5.90;87.80;;;;;;4993252;28;19916;-84
2023/02/01 09:13:57;;;;;;;;;;;6.00;86.90;;;;;;4995127;28;19918;-84
2023/02/01 09:16:23;;;;;;;;;;;6.00;86.30;;;;;;4976406;28;19989;-84
2023/02/01 09:18:48;;;;;;;;;;;6.00;85.90;;;;;;5008955;28;19913;-83
2023/02/01 09:21:26;;;;;;;;;;;6.10;86.00;;;;;;4990479;28;20033;-83
2023/02/01 09:23:52;;;;;;;;;;;6.00;86.30;;;;;;4989245;28;19917;-84
2023/02/01 09:26:17;;;;;;;;;;;6.10;85.50;;;;;;4991717;28;19914;-84
2023/02/01 09:29:12;;;;;;;;;;;6.20;84.90;;;;;;5009676;28;19910;-85
2023/02/01 09:31:40;;;;;;;;;;;6.20;84.70;;;;;;4986325;28;20434;-85
2023/02/01 09:34:07;;;;;;;;;;;6.30;84.90;;;;;;5010890;28;19921;-85
2023/02/01 09:36:33;;;;;;;;;;;6.30;84.80;;;;;;5011151;28;19916;-84
2023/02/01 09:38:59;;;;;;;;;;;6.40;84.60;;;;;;5010114;28;19913;-85
2023/02/01 09:41:27;;;;;;;;;;;6.50;84.40;;;;;;4993774;28;20013;-84
2023/02/01 09:44:04;;;;;;;;;;;6.50;84.20;;;;;;4994237;28;19966;-85
2023/02/01 09:46:32;;;;;;;;;;;6.50;83.70;;;;;;5010604;28;20502;-84
2023/02/01 09:49:09;;;;;;;;;;;6.60;83.50;;;;;;4993646;28;19910;-84
2023/02/01 09:51:40;;;;;;;;;;;6.60;83.40;;;;;;5010353;28;20379;-84
2023/02/01 09:54:15;;;;;;;;;;;6.70;83.20;;;;;;5006946;28;19917;-84
2023/02/01 09:56:53;;;;;;;;;;;6.70;83.10;;;;;;5011443;28;19910;-84
2023/02/01 09:59:38;;;;;;;;;;;6.80;83.20;;;;;;4996513;28;19921;-84
2023/02/01 10:02:04;;;;;;;;;;;6.80;83.40;;;;;;4991313;28;19961;-84
2023/02/01 10:04:30;;;;;;;;;;;6.80;82.20;;;;;;4998526;28;20004;-85
2023/02/01 10:07:14;;;;;;;;;;;6.70;82.60;;;;;;5000770;28;19914;-84
2023/02/01 10:09:56;;;;;;;;;;;6.70;82.80;;;;;;4995741;28;19969;-85
2023/02/01 10:12:28;;;;;;;;;;;6.60;83.20;;;;;;5002597;28;19961;-85
2023/02/01 10:15:13;;;;;;;;;;;6.70;82.50;;;;;;4996056;28;20438;-84
2023/02/01 10:17:59;;;;;;;;;;;6.70;82.70;;;;;;5007960;28;19914;-85
2023/02/01 10:20:43;;;;;;;;;;;6.70;82.30;;;;;;4991993;28;19916;-85
2023/02/01 10:23:27;;;;;;;;;;;6.70;81.40;;;;;;4992097;28;19920;-85
2023/02/01 10:25:53;;;;;;;;;;;6.70;82.00;;;;;;4990983;28;20001;-84
2023/02/01 10:28:21;;;;;;;;;;;6.70;82.30;;;;;;4993283;28;19914;-85
2023/02/01 10:30:47;;;;;;;;;;;6.70;82.20;;;;;;4998389;28;19933;-85
2023/02/01 10:33:16;;;;;;;;;;;6.70;82.50;;;;;;4990979;28;19910;-84
2023/02/01 10:35:43;;;;;;;;;;;6.70;82.80;;;;;;4989338;28;19914;-85
2023/02/01 10:38:20;;;;;;;;;;;6.70;82.50;;;;;;4998558;28;19965;-84
2023/02/01 10:40:46;;;;;;;;;;;6.70;82.10;;;;;;5011449;28;19909;-85
2023/02/01 10:43:12;;;;;;;;;;;6.70;82.60;;;;;;4993781;28;19978;-85
2023/02/01 10:45:39;;;;;;;;;;;6.60;82.70;;;;;;4995386;28;19910;-85
2023/02/01 10:48:05;;;;;;;;;;;6.70;82.60;;;;;;4978612;28;19936;-85
2023/02/01 10:50:49;;;;;;;;;;;6.60;83.20;;;;;;4998082;28;19910;-86
2023/02/01 10:53:18;;;;;;;;;;;6.70;82.40;;;;;;5000904;28;20350;-85
2023/02/01 10:55:53;;;;;;;;;;;6.70;83.30;;;;;;4997016;28;19894;-84
2023/02/01 10:58:31;;;;;;;;;;;6.70;83.30;;;;;;5016466;28;19914;-84
2023/02/01 11:00:57;;;;;;;;;;;6.70;82.40;;;;;;4999767;28;19937;-85
2023/02/01 11:03:42;;;;;;;;;;;6.70;83.40;;;;;;4998529;28;19898;-85
2023/02/01 11:06:27;;;;;;;;;;;6.70;83.50;;;;;;4977760;29;19923;-85
2023/02/01 11:09:13;;;;;;;;;;;6.70;82.60;;;;;;4974629;29;19905;-86
2023/02/01 11:11:48;;;;;;;;;;;6.70;83.30;;;;;;4968702;28;19997;-85
2023/02/01 11:14:15;;;;;;;;;;;6.60;83.80;;;;;;4977904;28;19914;-83
2023/02/01 11:16:46;;;;;;;;;;;6.50;84.00;;;;;;4967371;29;19981;-84
2023/02/01 11:19:14;;;;;;;;;;;6.60;83.90;;;;;;4965890;29;19910;-84
2023/02/01 11:21:41;;;;;;;;;;;6.60;83.20;;;;;;4979259;28;19903;-85
2023/02/01 11:24:11;;;;;;;;;;;6.60;84.00;;;;;;4979748;28;19903;-85
2023/02/01 11:26:39;;;;;;;;;;;6.60;83.50;;;;;;4972843;29;19922;-84
2023/02/01 11:29:11;;;;;;;;;;;6.70;83.70;;;;;;4970369;29;19911;-85
2023/02/01 11:31:37;;;;;;;;;;;6.60;84.00;;;;;;4969694;29;19974;-85
2023/02/01 11:34:14;;;;;;;;;;;6.60;84.20;;;;;;4967330;29;20396;-85
2023/02/01 11:36:40;;;;;;;;;;;6.60;84.20;;;;;;4986039;28;19938;-84
2023/02/01 11:39:09;;;;;;;;;;;6.40;84.20;;;;;;5009190;28;19977;-84
2023/02/01 11:41:40;;;;;;;;;;;6.30;84.90;;;;;;5007858;28;19910;-84
2023/02/01 11:44:18;;;;;;;;;;;6.30;85.20;;;;;;5008108;28;19960;-84
2023/02/01 11:46:44;;;;;;;;;;;6.30;85.40;;;;;;4993178;28;20294;-85
2023/02/01 11:49:19;;;;;;;;;;;6.20;84.90;;;;;;4989523;28;19914;-85
2023/02/01 11:51:53;;;;;;;;;;;6.20;84.70;;;;;;4972183;28;19917;-84
2023/02/01 11:54:22;;;;;;;;;;;6.10;85.30;;;;;;4999212;28;19958;-84
2023/02/01 11:56:59;;;;;;;;;;;6.10;85.70;;;;;;4985184;28;19976;-84
2023/02/01 11:59:32;;;;;;;;;;;6.10;85.60;;;;;;4984699;28;19997;-84
2023/02/01 12:01:58;;;;;;;;;;;6.20;85.60;;;;;;4987866;28;19917;-84
2023/02/01 12:04:44;;;;;;;;;;;6.10;85.30;;;;;;4989282;28;20447;-84
2023/02/01 12:07:19;;;;;;;;;;;6.20;85.60;;;;;;4977444;28;19953;-84
2023/02/01 12:09:57;;;;;;;;;;;6.30;84.80;;;;;;4991740;28;19910;-84
2023/02/01 12:12:26;;;;;;;;;;;6.40;84.80;;;;;;4993356;28;20334;-84
2023/02/01 12:14:51;;;;;;;;;;;6.40;84.80;;;;;;4991366;28;20362;-84
2023/02/01 12:17:33;;;;;;;;;;;6.40;84.70;;;;;;4982036;28;20013;-85
2023/02/01 12:20:10;;;;;;;;;;;6.40;84.50;;;;;;5007761;28;19921;-85
2023/02/01 12:22:36;;;;;;;;;;;6.40;84.00;;;;;;5010253;28;19946;-84
2023/02/01 12:25:34;;;;;;;;;;;6.40;84.20;;;;;;4997298;28;19938;-85
2023/02/01 12:28:18;;;;;;;;;;;6.30;84.20;;;;;;4970764;28;19918;-85
2023/02/01 12:30:50;;;;;;;;;;;6.20;84.30;;;;;;4993750;28;19910;-84
2023/02/01 12:33:51;;;;;;;;;;;6.00;85.40;;;;;;4983453;28;19910;-85
2023/02/01 12:36:16;;;;;;;;;;;5.90;85.30;;;;;;4924679;29;19959;-84
2023/02/01 12:38:42;;;;;;;;;;;5.80;85.70;;;;;;4961885;28;20288;-84
2023/02/01 12:41:33;;;;;;;;;;;5.70;86.50;;;;;;4980722;28;19910;-84
2023/02/01 12:44:06;;;;;;;;;;;5.70;86.50;;;;;;4981827;28;19921;-85
2023/02/01 12:46:38;;;;;;;;;;;5.60;86.60;;;;;;4983565;28;19914;-85
2023/02/01 12:49:06;;;;;;;;;;;5.60;86.90;;;;;;4983914;28;19917;-85
2023/02/01 12:51:36;;;;;;;;;;;5.50;88.00;;;;;;4982041;28;19932;-86
2023/02/01 12:54:22;;;;;;;;;;;5.50;87.30;;;;;;5000405;28;19910;-85
2023/02/01 12:56:51;;;;;;;;;;;5.40;87.70;;;;;;4971922;28;19914;-85
2023/02/01 12:59:28;;;;;;;;;;;5.40;87.80;;;;;;4981341;28;19910;-85
2023/02/01 13:02:13;;;;;;;;;;;5.40;87.60;;;;;;5006680;28;20286;-84
2023/02/01 13:05:01;;;;;;;;;;;5.50;87.00;;;;;;5012014;28;19922;-85
2023/02/01 13:07:47;;;;;;;;;;;5.60;85.60;;;;;;5015035;28;19925;-84
2023/02/01 13:10:12;;;;;;;;;;;5.70;84.70;;;;;;4965454;28;19938;-85
2023/02/01 13:12:50;;;;;;;;;;;5.60;85.10;;;;;;4972182;29;19943;-85
2023/02/01 13:15:30;;;;;;;;;;;5.60;85.20;;;;;;4968629;29;19910;-85
2023/02/01 13:17:58;;;;;;;;;;;5.70;84.90;;;;;;4968832;29;19910;-85
2023/02/01 13:20:24;;;;;;;;;;;5.80;84.30;;;;;;4979981;28;19933;-85
2023/02/01 13:22:58;;;;;;;;;;;5.80;84.50;;;;;;4991068;28;19919;-84
2023/02/01 13:25:29;;;;;;;;;;;5.80;84.50;;;;;;4991921;28;19910;-85
2023/02/01 13:27:57;;;;;;;;;;;5.90;84.60;;;;;;4991508;28;19979;-85
2023/02/01 13:30:26;;;;;;;;;;;5.90;84.90;;;;;;5006658;28;20266;-86
2023/02/01 13:33:01;;;;;;;;;;;5.90;85.10;;;;;;4989879;28;19915;-85
2023/02/01 13:35:26;;;;;;;;;;;5.90;85.30;;;;;;4988808;28;19941;-85
2023/02/01 13:37:59;;;;;;;;;;;5.90;85.50;;;;;;4981163;28;19911;-85
2023/02/01 13:40:34;;;;;;;;;;;5.90;85.40;;;;;;4993517;28;20000;-84
2023/02/01 13:43:02;;;;;;;;;;;5.80;86.60;;;;;;5009618;28;19921;-85
2023/02/01 13:45:30;;;;;;;;;;;5.90;86.50;;;;;;5009944;28;19910;-84
2023/02/01 13:47:58;;;;;;;;;;;5.90;87.10;;;;;;5011280;28;19914;-84
2023/02/01 13:50:33;;;;;;;;;;;5.80;87.50;;;;;;4992218;28;20325;-84
2023/02/01 13:53:13;;;;;;;;;;;5.80;87.90;;;;;;5008189;28;19914;-83
2023/02/01 13:55:44;;;;;;;;;;;5.70;88.90;;;;;;5007446;28;19950;-84
2023/02/01 13:58:29;;;;;;;;;;;5.60;88.90;;;;;;4990867;28;20370;-84
2023/02/01 14:01:14;;;;;;;;;;;5.60;89.50;;;;;;4988719;28;19981;-83
2023/02/01 14:03:44;;;;;;;;;;;5.60;89.40;;;;;;4979344;28;19913;-82
2023/02/01 14:06:27;;;;;;;;;;;5.60;89.00;;;;;;4993336;28;19954;-84
2023/02/01 14:09:08;;;;;;;;;;;5.60;89.90;;;;;;4979807;28;19910;-85
2023/02/01 14:11:35;;;;;;;;;;;5.60;89.90;;;;;;4977786;28;19934;-85
2023/02/01 14:14:24;;;;;;;;;;;5.50;90.00;;;;;;4988039;28;19914;-83
2023/02/01 14:16:55;;;;;;;;;;;5.50;90.00;;;;;;4990230;28;20335;-84
2023/02/01 14:19:28;;;;;;;;;;;5.40;90.30;;;;;;4970022;29;19910;-85
2023/02/01 14:22:01;;;;;;;;;;;5.40;90.20;;;;;;4970659;29;19997;-84
2023/02/01 14:24:28;;;;;;;;;;;5.50;90.00;;;;;;4979688;28;19903;-85
2023/02/01 14:26:55;;;;;;;;;;;5.40;90.10;;;;;;4978254;28;19945;-85
2023/02/01 14:29:27;;;;;;;;;;;5.40;90.00;;;;;;4969194;28;19921;-85
2023/02/01 14:32:27;;;;;;;;;;;5.50;89.20;;;;;;4964335;29;19911;-85
2023/02/01 14:34:56;;;;;;;;;;;5.50;88.90;;;;;;4945376;29;19910;-85
2023/02/01 14:37:22;;;;;;;;;;;5.50;88.70;;;;;;4974553;28;20319;-83
2023/02/01 14:40:08;;;;;;;;;;;5.40;88.70;;;;;;4992035;28;19922;-84
2023/02/01 14:42:49;;;;;;;;;;;5.40;88.40;;;;;;4973959;28;19917;-85
2023/02/01 14:45:26;;;;;;;;;;;5.40;88.10;;;;;;4994636;28;19914;-84
2023/02/01 14:47:51;;;;;;;;;;;5.40;88.00;;;;;;4989527;28;19918;-84
2023/02/01 14:50:21;;;;;;;;;;;5.50;87.80;;;;;;5006152;28;20327;-84
2023/02/01 14:52:50;;;;;;;;;;;5.40;87.30;;;;;;4978280;28;19993;-84
2023/02/01 14:55:16;;;;;;;;;;;5.40;87.50;;;;;;5002150;28;19938;-84
2023/02/01 14:57:43;;;;;;;;;;;5.40;87.10;;;;;;4990578;28;19942;-85
2023/02/01 15:00:28;;;;;;;;;;;5.40;87.80;;;;;;4995744;28;20008;-85
2023/02/01 15:02:55;;;;;;;;;;;5.40;87.20;;;;;;5003112;28;19941;-85
2023/02/01 15:05:21;;;;;;;;;;;5.40;87.20;;;;;;5007585;28;19917;-85
2023/02/01 15:07:47;;;;;;;;;;;5.40;86.90;;;;;;4988931;28;19929;-84
2023/02/01 15:10:13;;;;;;;;;;;5.40;86.80;;;;;;4998161;28;19909;-84
2023/02/01 15:12:40;;;;;;;;;;;5.30;87.40;;;;;;5019486;28;19944;-85
2023/02/01 15:15:08;;;;;;;;;;;5.30;87.40;;;;;;5018254;28;19921;-85
2023/02/01 15:17:34;;;;;;;;;;;5.40;87.90;;;;;;5006182;28;19960;-85